Time;durP1;ratioP1;P1;durP2;ratioP2;P2;SDS_P1;SDS_P2;PMS_P1;PMS_P2;Temp;Humidity;BMP_temperature;BMP_pressure;BME280_temperature;BME280_humidity;BME280_pressure;Samples;Min_cycle;Max_cycle;Signal;HPM_P1;HPM_P2
2022/11/29 00:00:10;;;;;;;96.85;25.60;;;9.20;99.90;;;;;;4880986;29;20065;-85
2022/11/29 00:02:36;;;;;;;69.93;22.80;;;9.20;99.90;;;;;;4896244;29;20191;-85
2022/11/29 00:05:01;;;;;;;61.60;19.73;;;9.20;99.90;;;;;;4868079;29;20186;-84
2022/11/29 00:07:27;;;;;;;67.53;22.42;;;9.20;99.90;;;;;;4879392;29;20057;-84
2022/11/29 00:09:53;;;;;;;46.17;16.88;;;9.20;99.90;;;;;;4882299;29;20049;-84
2022/11/29 00:12:18;;;;;;;40.28;15.52;;;9.20;99.90;;;;;;4879406;29;20410;-84
2022/11/29 00:14:44;;;;;;;53.25;18.52;;;9.20;99.90;;;;;;4881373;29;20040;-84
2022/11/29 00:17:09;;;;;;;58.95;19.45;;;9.20;99.90;;;;;;4886181;29;20044;-85
2022/11/29 00:19:35;;;;;;;38.53;16.48;;;9.20;99.90;;;;;;4898284;29;20049;-84
2022/11/29 00:22:02;;;;;;;64.90;20.90;;;9.10;99.90;;;;;;4890528;29;20056;-84
2022/11/29 00:24:30;;;;;;;72.13;23.27;;;9.20;99.90;;;;;;4889593;29;20061;-84
2022/11/29 00:26:56;;;;;;;45.50;17.45;;;9.20;99.90;;;;;;4885495;29;20044;-84
2022/11/29 00:29:21;;;;;;;50.90;18.92;;;9.10;99.90;;;;;;4881500;29;20053;-84
2022/11/29 00:31:47;;;;;;;69.03;23.00;;;9.20;99.90;;;;;;4879385;29;20049;-84
2022/11/29 00:34:12;;;;;;;59.65;20.30;;;9.20;99.90;;;;;;4894155;29;20075;-85
2022/11/29 00:36:39;;;;;;;76.70;22.35;;;9.10;99.90;;;;;;4882902;29;20037;-84
2022/11/29 00:39:05;;;;;;;62.75;22.13;;;9.20;99.90;;;;;;4880231;29;20109;-84
2022/11/29 00:41:30;;;;;;;64.82;19.17;;;9.20;99.90;;;;;;4882762;29;20393;-84
2022/11/29 00:43:56;;;;;;;61.38;20.15;;;9.20;99.90;;;;;;4880302;29;20109;-85
2022/11/29 00:46:22;;;;;;;75.15;21.23;;;9.10;99.90;;;;;;4880918;29;20188;-84
2022/11/29 00:48:48;;;;;;;71.70;21.75;;;9.10;99.90;;;;;;4885019;29;20044;-85
2022/11/29 00:51:14;;;;;;;57.60;20.48;;;9.10;99.90;;;;;;4886689;29;20108;-85
2022/11/29 00:53:39;;;;;;;70.35;22.55;;;9.10;99.90;;;;;;4882004;29;20485;-84
2022/11/29 00:56:05;;;;;;;37.35;15.98;;;9.10;99.90;;;;;;4879902;29;20375;-85
2022/11/29 00:58:31;;;;;;;40.22;17.05;;;9.10;99.90;;;;;;4884795;29;20045;-85
2022/11/29 01:00:57;;;;;;;46.67;17.75;;;9.10;99.90;;;;;;4883838;29;20052;-84
2022/11/29 01:03:23;;;;;;;67.18;20.83;;;9.10;99.90;;;;;;4884902;29;20441;-84
2022/11/29 01:05:49;;;;;;;39.40;15.20;;;9.10;99.90;;;;;;4879808;29;20117;-85
2022/11/29 01:08:16;;;;;;;40.30;16.33;;;9.10;99.90;;;;;;4895982;29;20056;-84
2022/11/29 01:10:41;;;;;;;52.83;20.13;;;9.10;99.90;;;;;;4893122;29;20573;-84
2022/11/29 01:13:08;;;;;;;51.80;20.73;;;9.10;99.90;;;;;;4895179;29;20048;-84
2022/11/29 01:15:34;;;;;;;45.95;19.42;;;9.10;99.90;;;;;;4875648;29;20592;-84
2022/11/29 01:18:00;;;;;;;57.63;21.17;;;9.10;99.90;;;;;;4880129;29;20105;-84
2022/11/29 01:20:26;;;;;;;48.05;20.35;;;9.10;99.90;;;;;;4879433;29;20485;-84
2022/11/29 01:22:51;;;;;;;34.13;15.30;;;9.10;99.90;;;;;;4885303;29;20048;-84
2022/11/29 01:25:18;;;;;;;54.45;19.67;;;9.20;99.90;;;;;;4883625;29;20052;-84
2022/11/29 01:27:44;;;;;;;29.92;13.95;;;9.10;99.90;;;;;;4885802;29;20053;-85
2022/11/29 01:30:10;;;;;;;34.38;14.65;;;9.10;99.90;;;;;;4879901;29;20053;-85
2022/11/29 01:32:37;;;;;;;75.80;21.85;;;9.10;99.90;;;;;;4881662;29;20089;-84
2022/11/29 01:35:04;;;;;;;30.60;14.38;;;9.10;99.90;;;;;;4880020;29;20128;-84
2022/11/29 01:37:30;;;;;;;34.20;15.70;;;9.10;99.90;;;;;;4880189;29;20433;-84
2022/11/29 01:39:55;;;;;;;30.35;14.52;;;9.10;99.90;;;;;;4880427;29;20135;-84
2022/11/29 01:42:21;;;;;;;28.55;13.73;;;9.10;99.90;;;;;;4879472;29;20049;-85
2022/11/29 01:45:01;;;;;;;52.90;21.73;;;9.10;99.90;;;;;;4888163;29;20051;-84
2022/11/29 01:47:27;;;;;;;54.10;19.50;;;9.10;99.90;;;;;;4880261;29;20176;-84
2022/11/29 01:49:53;;;;;;;49.03;20.20;;;9.10;99.90;;;;;;4882726;29;20052;-84
2022/11/29 01:52:23;;;;;;;34.90;15.88;;;9.10;99.90;;;;;;4885292;29;20092;-84
2022/11/29 01:54:54;;;;;;;47.38;20.30;;;9.10;99.90;;;;;;4887787;29;20049;-84
2022/11/29 01:57:20;;;;;;;31.67;15.90;;;9.10;99.90;;;;;;4888015;29;20053;-85
2022/11/29 01:59:50;;;;;;;43.10;17.17;;;9.00;99.90;;;;;;4889584;29;20146;-84
2022/11/29 02:02:30;;;;;;;29.45;14.90;;;9.00;99.90;;;;;;4878970;29;20044;-84
2022/11/29 02:04:58;;;;;;;28.45;14.50;;;9.00;99.90;;;;;;4873484;29;20109;-84
2022/11/29 02:07:26;;;;;;;26.15;13.75;;;9.00;99.90;;;;;;4886148;29;20390;-85
2022/11/29 02:09:52;;;;;;;30.83;15.95;;;9.10;99.90;;;;;;4896697;29;20143;-85
2022/11/29 02:12:51;;;;;;;26.80;13.82;;;9.00;99.90;;;;;;4892835;29;20176;-84
2022/11/29 02:15:45;;;;;;;36.38;16.83;;;9.00;99.90;;;;;;4872022;29;20045;-84
2022/11/29 02:18:23;;;;;;;27.75;13.70;;;9.00;99.90;;;;;;4873978;29;20060;-84
2022/11/29 02:20:59;;;;;;;25.83;13.52;;;9.00;99.90;;;;;;4909759;29;20047;-84
2022/11/29 02:23:59;;;;;;;25.17;13.25;;;8.90;99.90;;;;;;4880127;29;20057;-85
2022/11/29 02:26:55;;;;;;;26.17;12.85;;;8.90;99.90;;;;;;4910783;29;20057;-84
2022/11/29 02:29:55;;;;;;;37.50;16.83;;;8.90;99.90;;;;;;4875747;29;20053;-84
2022/11/29 02:32:43;;;;;;;25.63;12.80;;;8.90;99.90;;;;;;4879297;29;20131;-84
2022/11/29 02:35:38;;;;;;;52.38;19.25;;;8.90;99.90;;;;;;4879495;29;20516;-84
2022/11/29 02:38:32;;;;;;;37.00;16.38;;;8.80;99.90;;;;;;4838363;29;20061;-85
2022/11/29 02:41:25;;;;;;;32.88;16.52;;;8.90;99.90;;;;;;4883980;29;20061;-84
2022/11/29 02:44:18;;;;;;;23.90;12.88;;;8.90;99.90;;;;;;4879107;29;20070;-84
2022/11/29 02:47:14;;;;;;;24.55;12.82;;;8.80;99.90;;;;;;4878189;29;20041;-84
2022/11/29 02:49:59;;;;;;;34.38;17.40;;;8.80;99.90;;;;;;4877411;29;20462;-85
2022/11/29 02:52:43;;;;;;;30.85;15.10;;;8.80;99.90;;;;;;4889269;29;20040;-84
2022/11/29 02:55:20;;;;;;;24.55;12.93;;;8.80;99.90;;;;;;4872263;29;20055;-84
2022/11/29 02:58:01;;;;;;;26.42;14.25;;;8.80;99.90;;;;;;4886230;29;20072;-84
2022/11/29 03:00:27;;;;;;;25.00;13.77;;;8.80;99.90;;;;;;4880960;29;20049;-84
2022/11/29 03:03:08;;;;;;;28.73;14.43;;;8.80;99.90;;;;;;4878408;29;20045;-84
2022/11/29 03:05:44;;;;;;;28.75;14.30;;;8.80;99.90;;;;;;4883346;29;20037;-84
2022/11/29 03:08:38;;;;;;;38.42;17.65;;;8.80;99.90;;;;;;4886266;29;20061;-84
2022/11/29 03:11:43;;;;;;;36.78;16.73;;;8.80;99.90;;;;;;4881455;29;20186;-84
2022/11/29 03:14:33;;;;;;;24.08;13.25;;;8.80;99.90;;;;;;4878357;29;20524;-84
2022/11/29 03:17:28;;;;;;;23.25;12.75;;;8.80;99.90;;;;;;4880088;29;20037;-84
2022/11/29 03:20:19;;;;;;;23.38;13.15;;;8.80;99.90;;;;;;4879247;29;20064;-84
2022/11/29 03:23:17;;;;;;;24.35;13.15;;;8.80;99.90;;;;;;4881535;29;20390;-84
2022/11/29 03:25:58;;;;;;;34.00;16.42;;;8.70;99.90;;;;;;4872700;29;20057;-85
2022/11/29 03:28:31;;;;;;;23.42;13.07;;;8.70;99.90;;;;;;4881108;29;20045;-84
2022/11/29 03:31:05;;;;;;;36.50;14.10;;;8.70;99.90;;;;;;4877728;29;20045;-84
2022/11/29 03:34:09;;;;;;;24.70;13.65;;;8.70;99.90;;;;;;4879387;29;20094;-85
2022/11/29 03:36:50;;;;;;;21.70;12.70;;;8.70;99.90;;;;;;4877814;29;20521;-84
2022/11/29 03:39:23;;;;;;;34.38;13.13;;;8.70;99.90;;;;;;4878681;29;20041;-84
2022/11/29 03:41:57;;;;;;;20.48;11.95;;;8.70;99.90;;;;;;4877790;29;20430;-84
2022/11/29 03:44:41;;;;;;;43.88;13.60;;;8.70;99.90;;;;;;4883054;29;20112;-84
2022/11/29 03:47:12;;;;;;;43.40;12.50;;;8.60;99.90;;;;;;4877390;29;20092;-84
2022/11/29 03:49:59;;;;;;;21.60;12.45;;;8.60;99.90;;;;;;4887923;29;20490;-83
2022/11/29 03:52:45;;;;;;;40.67;12.77;;;8.60;99.90;;;;;;4878393;29;20092;-84
2022/11/29 03:55:22;;;;;;;46.45;12.73;;;8.60;99.90;;;;;;4891965;29;20080;-84
2022/11/29 03:58:14;;;;;;;29.85;11.60;;;8.60;99.90;;;;;;4883264;29;20128;-84
2022/11/29 04:00:59;;;;;;;22.17;11.82;;;8.60;99.90;;;;;;4873830;29;20048;-84
2022/11/29 04:03:37;;;;;;;19.25;11.50;;;8.60;99.90;;;;;;4864995;29;20060;-85
2022/11/29 04:06:33;;;;;;;19.98;11.30;;;8.60;99.90;;;;;;4877437;29;20056;-85
2022/11/29 04:09:24;;;;;;;17.98;11.13;;;8.60;99.90;;;;;;4881417;29;20056;-84
2022/11/29 04:12:13;;;;;;;20.83;11.50;;;8.60;99.90;;;;;;4878597;29;20056;-85
2022/11/29 04:14:52;;;;;;;19.60;11.52;;;8.60;99.90;;;;;;4893637;29;20072;-85
2022/11/29 04:17:51;;;;;;;20.55;11.88;;;8.50;99.90;;;;;;4884806;29;20132;-85
2022/11/29 04:20:32;;;;;;;20.20;11.40;;;8.60;99.90;;;;;;4884334;29;20048;-85
2022/11/29 04:24:05;;;;;;;19.55;11.20;;;8.50;99.90;;;;;;4882329;29;20049;-85
2022/11/29 04:26:57;;;;;;;20.23;11.68;;;8.50;99.90;;;;;;4799862;29;20098;-85
2022/11/29 04:29:32;;;;;;;21.38;11.55;;;8.50;99.90;;;;;;4887880;29;20150;-84
2022/11/29 04:32:29;;;;;;;17.50;11.00;;;8.50;99.90;;;;;;4887451;29;20053;-84
2022/11/29 04:35:06;;;;;;;21.33;12.07;;;8.50;99.90;;;;;;4880710;29;20049;-85
2022/11/29 04:37:59;;;;;;;18.33;10.85;;;8.50;99.90;;;;;;4871156;29;20041;-84
2022/11/29 04:40:55;;;;;;;23.90;10.95;;;8.50;99.90;;;;;;4874087;29;20096;-85
2022/11/29 04:43:40;;;;;;;17.83;11.10;;;8.50;99.90;;;;;;4880411;29;20230;-85
2022/11/29 04:46:17;;;;;;;16.73;10.45;;;8.50;99.90;;;;;;4879655;29;20037;-85
2022/11/29 04:49:09;;;;;;;16.52;10.13;;;8.50;99.90;;;;;;4868563;29;20049;-85
2022/11/29 04:52:04;;;;;;;15.65;10.35;;;8.50;99.90;;;;;;4880487;29;20101;-84
2022/11/29 04:54:46;;;;;;;19.48;10.68;;;8.50;99.90;;;;;;4881118;29;20041;-84
2022/11/29 04:57:36;;;;;;;16.10;10.45;;;8.40;99.90;;;;;;4872364;29;20057;-84
2022/11/29 05:00:17;;;;;;;17.33;10.10;;;8.40;99.90;;;;;;4879884;29;20045;-84
2022/11/29 05:03:00;;;;;;;31.65;10.13;;;8.40;99.90;;;;;;4876950;29;20511;-84
2022/11/29 05:05:36;;;;;;;16.15;10.23;;;8.40;99.90;;;;;;4899204;29;20499;-84
2022/11/29 05:08:46;;;;;;;17.88;10.07;;;8.40;99.90;;;;;;4884150;29;20045;-84
2022/11/29 05:11:42;;;;;;;72.35;11.32;;;8.40;99.90;;;;;;4877827;29;20109;-85
2022/11/29 05:14:23;;;;;;;15.98;10.25;;;8.40;99.90;;;;;;4868104;29;20167;-85
2022/11/29 05:17:08;;;;;;;16.17;9.43;;;8.40;99.90;;;;;;4883015;29;20063;-84
2022/11/29 05:19:55;;;;;;;15.07;9.55;;;8.40;99.90;;;;;;4879170;29;20049;-85
2022/11/29 05:22:27;;;;;;;14.35;9.25;;;8.30;99.90;;;;;;4882224;29;20041;-83
2022/11/29 05:24:58;;;;;;;25.23;9.85;;;8.40;99.90;;;;;;4890424;29;20049;-84
2022/11/29 05:27:42;;;;;;;15.88;10.38;;;8.40;99.90;;;;;;4887517;29;20048;-85
2022/11/29 05:30:14;;;;;;;15.27;9.95;;;8.30;99.90;;;;;;4884433;29;20490;-86
2022/11/29 05:32:52;;;;;;;18.02;9.23;;;8.40;99.90;;;;;;4879665;29;20052;-85
2022/11/29 05:35:37;;;;;;;14.38;9.30;;;8.30;99.90;;;;;;4878646;29;20053;-85
2022/11/29 05:38:28;;;;;;;15.63;9.20;;;8.40;99.90;;;;;;4911154;29;20077;-92
2022/11/29 05:41:11;;;;;;;13.80;8.95;;;8.30;99.90;;;;;;4862129;29;20041;-90
2022/11/29 05:44:03;;;;;;;26.75;9.10;;;8.30;99.90;;;;;;4894384;29;20049;-90
2022/11/29 05:46:28;;;;;;;14.05;9.07;;;8.30;99.90;;;;;;4880600;29;20073;-87
2022/11/29 05:49:13;;;;;;;14.40;9.30;;;8.30;99.90;;;;;;4879021;29;20084;-84
2022/11/29 05:52:04;;;;;;;15.60;9.52;;;8.30;99.90;;;;;;4891756;29;20561;-83
2022/11/29 05:54:41;;;;;;;13.48;8.93;;;8.30;99.90;;;;;;4880312;29;20383;-84
2022/11/29 05:57:20;;;;;;;14.82;9.15;;;8.30;99.90;;;;;;4874036;29;20098;-84
2022/11/29 05:59:49;;;;;;;14.45;9.43;;;8.30;99.90;;;;;;4886398;29;20040;-83
2022/11/29 06:02:26;;;;;;;13.43;9.35;;;8.30;99.90;;;;;;4893619;29;20051;-83
2022/11/29 06:05:30;;;;;;;13.05;8.77;;;8.30;99.90;;;;;;4896355;29;20056;-83
2022/11/29 06:08:23;;;;;;;15.73;9.47;;;8.30;99.90;;;;;;4890333;29;20421;-83
2022/11/29 06:11:04;;;;;;;15.18;9.18;;;8.30;99.90;;;;;;4879943;29;20302;-83
2022/11/29 06:14:12;;;;;;;14.10;9.02;;;8.30;99.90;;;;;;4877531;29;20060;-83
2022/11/29 06:16:49;;;;;;;26.48;9.60;;;8.20;99.90;;;;;;4848973;29;20053;-84
2022/11/29 06:19:39;;;;;;;13.73;8.55;;;8.20;99.90;;;;;;4886785;29;20052;-84
2022/11/29 06:22:23;;;;;;;13.50;9.00;;;8.20;99.90;;;;;;4876303;29;20209;-84
2022/11/29 06:25:17;;;;;;;14.38;9.35;;;8.20;99.90;;;;;;4881587;29;20084;-83
2022/11/29 06:28:17;;;;;;;18.55;8.95;;;8.20;99.90;;;;;;4889392;29;20493;-83
2022/11/29 06:31:08;;;;;;;12.52;8.25;;;8.20;99.90;;;;;;4876066;29;20056;-83
2022/11/29 06:34:08;;;;;;;29.63;9.57;;;8.20;99.90;;;;;;4866481;29;20097;-83
2022/11/29 06:36:41;;;;;;;15.88;9.15;;;8.20;99.90;;;;;;4877670;29;20490;-84
2022/11/29 06:39:09;;;;;;;16.25;9.45;;;8.20;99.90;;;;;;4879228;29;20049;-85
2022/11/29 06:41:35;;;;;;;15.18;9.63;;;8.20;99.90;;;;;;4881173;29;20052;-85
2022/11/29 06:44:01;;;;;;;31.45;10.70;;;8.20;99.90;;;;;;4896664;29;20037;-85
2022/11/29 06:46:52;;;;;;;14.63;9.52;;;8.20;99.90;;;;;;4897773;29;20108;-85
2022/11/29 06:49:32;;;;;;;15.18;9.80;;;8.20;99.90;;;;;;4893218;29;20132;-85
2022/11/29 06:52:07;;;;;;;15.07;9.80;;;8.20;99.90;;;;;;4878153;29;20553;-85
2022/11/29 06:54:56;;;;;;;13.55;8.68;;;8.20;99.90;;;;;;4880719;29;20524;-85
2022/11/29 06:57:25;;;;;;;13.88;9.23;;;8.20;99.90;;;;;;4909006;29;20554;-86
2022/11/29 06:59:51;;;;;;;13.85;9.43;;;8.20;99.90;;;;;;4877787;29;20052;-85
2022/11/29 07:02:42;;;;;;;13.77;8.80;;;8.20;99.90;;;;;;4896247;29;20044;-85
2022/11/29 07:05:12;;;;;;;20.55;9.80;;;8.20;99.90;;;;;;4893285;29;20052;-86
2022/11/29 07:07:40;;;;;;;14.80;10.07;;;8.20;99.90;;;;;;4879298;29;20429;-85
2022/11/29 07:10:06;;;;;;;14.40;9.10;;;8.20;99.90;;;;;;4909295;29;20049;-85
2022/11/29 07:12:32;;;;;;;12.75;8.52;;;8.20;99.90;;;;;;4877623;29;20395;-85
2022/11/29 07:14:58;;;;;;;13.85;9.05;;;8.20;99.90;;;;;;4909893;29;20078;-85
2022/11/29 07:17:51;;;;;;;14.13;9.20;;;8.20;99.90;;;;;;4889836;29;20398;-85
2022/11/29 07:20:35;;;;;;;13.10;8.68;;;8.20;99.90;;;;;;4878416;29;20045;-85
2022/11/29 07:23:32;;;;;;;12.15;8.23;;;8.10;99.90;;;;;;4910667;29;20049;-85
2022/11/29 07:26:27;;;;;;;13.02;8.35;;;8.20;99.90;;;;;;4869596;29;20053;-85
2022/11/29 07:29:27;;;;;;;14.00;9.40;;;8.20;99.90;;;;;;4879479;29;20053;-86
2022/11/29 07:31:55;;;;;;;13.07;9.43;;;8.10;99.90;;;;;;4860788;29;20055;-85
2022/11/29 07:34:27;;;;;;;16.08;10.90;;;8.20;99.90;;;;;;4872017;29;20502;-86
2022/11/29 07:36:52;;;;;;;12.30;8.57;;;8.20;99.90;;;;;;4889994;29;20053;-85
2022/11/29 07:39:42;;;;;;;20.00;10.88;;;8.10;99.90;;;;;;4879960;29;20094;-85
2022/11/29 07:42:30;;;;;;;15.75;9.98;;;8.10;99.90;;;;;;4885967;29;20049;-86
2022/11/29 07:45:04;;;;;;;12.90;8.77;;;8.10;99.90;;;;;;4897958;29;20107;-85
2022/11/29 07:47:30;;;;;;;12.95;9.10;;;8.10;99.90;;;;;;4895972;29;20117;-85
2022/11/29 07:49:55;;;;;;;15.68;10.00;;;8.10;99.90;;;;;;4894887;29;20056;-85
2022/11/29 07:52:21;;;;;;;25.08;10.75;;;8.10;99.90;;;;;;4897564;29;20154;-86
2022/11/29 07:54:46;;;;;;;13.68;9.80;;;8.10;99.90;;;;;;4895569;29;20048;-85
2022/11/29 07:57:12;;;;;;;14.15;9.90;;;8.10;99.90;;;;;;4895390;29;20092;-86
2022/11/29 07:59:37;;;;;;;15.23;9.98;;;8.20;99.90;;;;;;4900101;29;20084;-85
2022/11/29 08:02:04;;;;;;;13.93;8.70;;;8.20;99.90;;;;;;4899489;29;20382;-86
2022/11/29 08:04:29;;;;;;;16.45;9.48;;;8.20;99.90;;;;;;4901392;29;20100;-84
2022/11/29 08:06:59;;;;;;;12.35;8.60;;;8.10;99.90;;;;;;4883384;29;20045;-86
2022/11/29 08:09:25;;;;;;;15.65;10.40;;;8.10;99.90;;;;;;4880244;29;20141;-84
2022/11/29 08:11:51;;;;;;;13.35;9.45;;;8.10;99.90;;;;;;4882757;29;20120;-86
2022/11/29 08:14:16;;;;;;;22.48;12.77;;;8.10;99.90;;;;;;4880877;29;20493;-84
2022/11/29 08:16:42;;;;;;;15.93;10.45;;;8.20;99.90;;;;;;4880813;29;20072;-86
2022/11/29 08:19:07;;;;;;;16.20;10.80;;;8.20;99.90;;;;;;4880951;29;20053;-86
2022/11/29 08:21:33;;;;;;;25.75;13.23;;;8.10;99.90;;;;;;4892282;29;20120;-85
2022/11/29 08:23:59;;;;;;;15.32;10.38;;;8.10;99.90;;;;;;4900190;29;20056;-85
2022/11/29 08:26:24;;;;;;;17.02;10.70;;;8.10;99.90;;;;;;4899119;29;20037;-85
2022/11/29 08:28:51;;;;;;;18.23;11.02;;;8.10;99.90;;;;;;4899633;29;20534;-85
2022/11/29 08:31:17;;;;;;;15.48;9.80;;;8.10;99.90;;;;;;4898798;29;20366;-85
2022/11/29 08:33:43;;;;;;;21.50;10.82;;;8.10;99.90;;;;;;4899345;29;20160;-85
2022/11/29 08:36:12;;;;;;;15.68;10.45;;;8.10;99.90;;;;;;4899408;29;20127;-85
2022/11/29 08:38:38;;;;;;;15.38;9.50;;;8.20;99.90;;;;;;4896437;29;20048;-85
2022/11/29 08:41:06;;;;;;;23.15;12.43;;;8.10;99.90;;;;;;4880795;29;20056;-85
2022/11/29 08:43:32;;;;;;;18.33;11.68;;;8.10;99.90;;;;;;4880002;29;20089;-84
2022/11/29 08:45:58;;;;;;;20.88;12.18;;;8.20;99.90;;;;;;4880526;29;20093;-85
2022/11/29 08:48:24;;;;;;;15.90;9.93;;;8.10;99.90;;;;;;4893135;29;20040;-85
2022/11/29 08:50:54;;;;;;;15.23;9.80;;;8.10;99.90;;;;;;4880055;29;20556;-85
2022/11/29 08:56:06;;;;;;;14.25;9.73;;;8.10;99.90;;;;;;4880628;29;20053;-85
2022/11/29 08:58:31;;;;;;;14.30;9.52;;;8.20;99.90;;;;;;4879868;29;20168;-84
2022/11/29 09:00:57;;;;;;;22.83;11.80;;;8.20;99.90;;;;;;4880344;29;20081;-85
2022/11/29 09:06:14;;;;;;;23.67;12.10;;;8.20;99.90;;;;;;4881042;29;20136;-87
2022/11/29 09:08:43;;;;;;;27.38;12.45;;;8.20;99.90;;;;;;4879931;29;20068;-82
2022/11/29 09:11:21;;;;;;;18.60;10.45;;;8.20;99.90;;;;;;4881535;29;20041;-84
2022/11/29 09:13:48;;;;;;;16.70;10.23;;;8.20;99.90;;;;;;4910946;29;20049;-84
2022/11/29 09:16:17;;;;;;;15.55;9.32;;;8.20;99.90;;;;;;4880241;29;20413;-84
2022/11/29 09:18:43;;;;;;;18.50;9.85;;;8.20;99.90;;;;;;4879669;29;20060;-84
2022/11/29 09:21:11;;;;;;;22.42;10.27;;;8.20;99.90;;;;;;4879677;29;20131;-87
2022/11/29 09:23:39;;;;;;;20.30;9.77;;;8.20;99.90;;;;;;4881478;29;20049;-88
2022/11/29 09:26:06;;;;;;;23.15;10.40;;;8.20;99.90;;;;;;4879070;29;20052;-84
2022/11/29 09:28:32;;;;;;;17.73;9.52;;;8.20;99.90;;;;;;4880282;29;20053;-85
2022/11/29 09:31:06;;;;;;;24.35;10.30;;;8.20;99.90;;;;;;4879784;29;20054;-83
2022/11/29 09:33:33;;;;;;;23.25;9.85;;;8.30;99.90;;;;;;4893711;29;20049;-83
2022/11/29 09:35:59;;;;;;;25.25;10.52;;;8.30;99.90;;;;;;4898597;29;20040;-83
2022/11/29 09:38:24;;;;;;;19.02;8.90;;;8.30;99.90;;;;;;4895272;29;20045;-83
2022/11/29 09:40:53;;;;;;;22.17;10.50;;;8.30;99.90;;;;;;4880439;29;20041;-83
2022/11/29 09:43:41;;;;;;;16.85;8.57;;;8.30;99.90;;;;;;4879635;29;20123;-83
2022/11/29 09:46:16;;;;;;;19.38;9.68;;;8.40;99.90;;;;;;4910687;29;20045;-83
2022/11/29 09:49:10;;;;;;;21.50;11.68;;;8.30;99.90;;;;;;4879235;29;20440;-82
2022/11/29 09:52:06;;;;;;;16.23;9.30;;;8.30;99.90;;;;;;4880055;29;20053;-83
2022/11/29 09:54:52;;;;;;;23.10;9.93;;;8.30;99.90;;;;;;4893298;29;20073;-82
2022/11/29 09:57:18;;;;;;;25.42;10.77;;;8.40;99.90;;;;;;4897896;29;20115;-82
2022/11/29 09:59:48;;;;;;;15.85;8.65;;;8.30;99.90;;;;;;4898374;29;20131;-83
2022/11/29 10:02:32;;;;;;;19.77;9.32;;;8.40;99.90;;;;;;4896673;29;20485;-82
2022/11/29 10:05:08;;;;;;;19.92;8.88;;;8.40;99.90;;;;;;4899178;29;20134;-82
2022/11/29 10:07:42;;;;;;;23.67;9.40;;;8.40;99.90;;;;;;4885646;29;20159;-83
2022/11/29 10:10:17;;;;;;;;;;;8.40;99.90;;;;;;4909994;29;20057;-84
2022/11/29 10:12:52;;;;;;;21.70;9.32;;;8.40;99.90;;;;;;4879488;29;20288;-84
2022/11/29 10:15:42;;;;;;;17.23;9.00;;;8.40;99.90;;;;;;4878435;29;20052;-83
2022/11/29 10:18:26;;;;;;;18.50;8.40;;;8.40;99.90;;;;;;4880213;29;20383;-84
2022/11/29 10:20:57;;;;;;;17.45;8.45;;;8.40;99.90;;;;;;4878424;29;20237;-84
2022/11/29 10:23:43;;;;;;;17.52;8.75;;;8.40;99.90;;;;;;4879298;29;20044;-84
2022/11/29 10:26:11;;;;;;;19.80;8.82;;;8.40;99.90;;;;;;4879164;29;20049;-83
2022/11/29 10:28:43;;;;;;;20.98;9.30;;;8.40;99.90;;;;;;4878761;29;20059;-84
2022/11/29 10:31:20;;;;;;;20.92;9.95;;;8.50;99.90;;;;;;4880194;29;20390;-83
2022/11/29 10:33:47;;;;;;;32.22;14.82;;;8.50;99.90;;;;;;4897561;29;20127;-83
2022/11/29 10:36:21;;;;;;;30.02;15.90;;;8.50;99.90;;;;;;4897479;29;20044;-84
2022/11/29 10:38:48;;;;;;;27.30;10.68;;;8.50;99.90;;;;;;4896020;29;20048;-84
2022/11/29 10:41:20;;;;;;;27.10;10.68;;;8.50;99.90;;;;;;4896946;29;20136;-84
2022/11/29 10:43:47;;;;;;;18.80;8.80;;;8.60;99.90;;;;;;4896438;29;20063;-84
2022/11/29 10:46:26;;;;;;;21.60;9.35;;;8.60;99.90;;;;;;4894632;29;20381;-84
2022/11/29 10:48:52;;;;;;;19.55;8.70;;;8.60;99.90;;;;;;4878702;29;20139;-87
2022/11/29 10:51:18;;;;;;;22.35;9.48;;;8.60;99.90;;;;;;4892232;29;20492;-88
2022/11/29 10:59:07;;;;;;;23.63;8.90;;;8.70;99.90;;;;;;4915196;29;20129;-93
2022/11/29 11:02:23;;;;;;;17.63;7.68;;;8.70;99.90;;;;;;4918369;29;20114;-92
2022/11/29 11:05:40;;;;;;;22.88;9.10;;;8.70;99.90;;;;;;4915622;29;20622;-92
2022/11/29 11:09:07;;;;;;;21.05;8.43;;;8.70;99.90;;;;;;4859238;29;20057;-92
2022/11/29 11:14:47;;;;;;;24.90;11.30;;;8.70;99.90;;;;;;4915431;29;20048;-87
2022/11/29 11:17:36;;;;;;;24.92;8.32;;;8.80;99.90;;;;;;4915457;29;20052;-87
2022/11/29 11:20:22;;;;;;;;;;;8.80;99.90;;;;;;4915051;29;20138;-86
2022/11/29 11:23:06;;;;;;;19.15;7.72;;;8.80;99.90;;;;;;4915669;29;20376;-86
2022/11/29 11:25:37;;;;;;;20.85;7.63;;;8.80;99.90;;;;;;4915896;29;20519;-86
2022/11/29 11:28:26;;;;;;;25.33;9.40;;;8.80;99.90;;;;;;4915655;29;20565;-87
2022/11/29 11:30:53;;;;;;;21.95;8.63;;;8.90;99.90;;;;;;4917199;29;20100;-87
2022/11/29 11:33:24;;;;;;;25.80;9.40;;;8.90;99.90;;;;;;4929255;29;20548;-87
2022/11/29 11:36:05;;;;;;;27.13;8.93;;;8.90;99.90;;;;;;4922774;29;20052;-85
2022/11/29 11:38:33;;;;;;;28.60;9.52;;;8.90;99.90;;;;;;4919227;29;20067;-86
2022/11/29 11:44:48;;;;;;;24.42;9.27;;;9.00;99.90;;;;;;4920783;29;20058;-85
2022/11/29 11:47:18;;;;;;;28.20;7.88;;;9.10;99.90;;;;;;4918003;29;20059;-84
2022/11/29 11:50:00;;;;;;;26.13;8.07;;;9.10;99.90;;;;;;4919084;29;20107;-85
2022/11/29 11:52:38;;;;;;;31.45;10.45;;;9.10;99.90;;;;;;4918439;29;20371;-83
2022/11/29 11:55:16;;;;;;;28.00;11.88;;;9.10;99.90;;;;;;4901546;29;20052;-84
2022/11/29 11:57:42;;;;;;;26.67;9.60;;;9.20;99.90;;;;;;4904070;29;20067;-83
2022/11/29 12:00:41;;;;;;;25.65;10.50;;;9.20;99.90;;;;;;4920230;29;20067;-84
2022/11/29 12:03:25;;;;;;;25.98;9.30;;;9.20;99.90;;;;;;4921312;29;20048;-84
2022/11/29 12:05:55;;;;;;;25.85;8.60;;;9.20;99.90;;;;;;4901997;29;20044;-85
2022/11/29 12:08:23;;;;;;;29.55;10.20;;;9.30;99.90;;;;;;4921130;29;20408;-86
2022/11/29 12:10:54;;;;;;;21.73;8.43;;;9.30;99.90;;;;;;4924199;29;20442;-87
2022/11/29 12:13:25;;;;;;;22.73;8.65;;;9.40;99.90;;;;;;4914775;29;20052;-85
2022/11/29 12:16:08;;;;;;;19.10;7.30;;;9.30;99.90;;;;;;4908036;29;20044;-92
2022/11/29 12:18:43;;;;;;;34.42;11.40;;;9.40;99.90;;;;;;4904746;29;20131;-86
2022/11/29 12:21:13;;;;;;;29.75;9.82;;;9.40;99.90;;;;;;4911426;29;20048;-85
2022/11/29 12:23:53;;;;;;;32.75;10.48;;;9.40;99.90;;;;;;4919259;29;20041;-84
2022/11/29 12:26:24;;;;;;;22.88;9.05;;;9.50;99.90;;;;;;4917514;29;20143;-85
2022/11/29 12:28:50;;;;;;;25.55;9.93;;;9.50;99.90;;;;;;4904607;29;20044;-86
2022/11/29 12:31:45;;;;;;;31.23;10.38;;;9.50;99.90;;;;;;4917813;29;20103;-85
2022/11/29 12:34:46;;;;;;;33.60;11.93;;;9.50;99.90;;;;;;4917156;29;20048;-84
2022/11/29 12:37:28;;;;;;;27.88;12.32;;;9.50;99.90;;;;;;4916004;29;20059;-86
2022/11/29 12:40:12;;;;;;;27.58;13.88;;;9.50;99.90;;;;;;4917842;29;20107;-86
2022/11/29 12:42:38;;;;;;;23.48;11.82;;;9.60;99.90;;;;;;4913839;29;20063;-86
2022/11/29 12:45:18;;;;;;;29.23;12.43;;;9.60;99.90;;;;;;4919079;29;20489;-86
2022/11/29 12:47:49;;;;;;;19.52;10.20;;;9.60;99.90;;;;;;4918624;29;20471;-86
2022/11/29 12:50:37;;;;;;;19.13;9.90;;;9.60;99.90;;;;;;4916963;29;20056;-86
2022/11/29 12:53:22;;;;;;;20.63;10.45;;;9.70;99.90;;;;;;4914991;29;20131;-87
2022/11/29 12:56:09;;;;;;;25.25;11.32;;;9.70;99.90;;;;;;4891889;29;20512;-87
2022/11/29 12:58:54;;;;;;;20.80;10.73;;;9.70;99.90;;;;;;4916636;29;20061;-87
2022/11/29 13:01:29;;;;;;;22.40;10.38;;;9.70;99.90;;;;;;4917992;29;20056;-87
2022/11/29 13:04:05;;;;;;;19.73;10.65;;;9.70;99.90;;;;;;4917535;29;20055;-87
2022/11/29 13:06:51;;;;;;;23.73;11.75;;;9.70;99.90;;;;;;4917101;29;20048;-87
2022/11/29 13:09:48;;;;;;;21.33;10.27;;;9.70;99.90;;;;;;4918001;29;20052;-87
2022/11/29 13:12:40;;;;;;;19.23;9.73;;;9.80;99.90;;;;;;4916480;29;20075;-87
2022/11/29 13:15:20;;;;;;;21.98;10.32;;;9.80;99.90;;;;;;4913666;29;20059;-87
2022/11/29 13:17:56;;;;;;;24.65;10.55;;;9.80;99.90;;;;;;4913804;29;20055;-86
2022/11/29 13:20:42;;;;;;;19.88;10.60;;;9.80;99.90;;;;;;4907825;29;20055;-87
2022/11/29 13:23:28;;;;;;;19.95;9.50;;;9.80;99.90;;;;;;4917110;29;20048;-88
2022/11/29 13:25:58;;;;;;;18.95;10.13;;;9.80;99.90;;;;;;4916568;29;20043;-87
2022/11/29 13:28:27;;;;;;;15.55;9.30;;;9.80;99.90;;;;;;4916764;29;20511;-87
2022/11/29 13:30:59;;;;;;;12.48;7.95;;;9.80;99.90;;;;;;4917239;29;20052;-87
2022/11/29 13:33:42;;;;;;;18.42;8.57;;;9.80;99.90;;;;;;4915346;29;20233;-87
2022/11/29 13:36:28;;;;;;;11.90;7.85;;;9.80;99.90;;;;;;4915711;29;20071;-86
2022/11/29 13:39:02;;;;;;;12.07;7.60;;;9.80;99.90;;;;;;4906180;29;20372;-86
2022/11/29 13:41:29;;;;;;;14.68;7.95;;;9.80;99.90;;;;;;4915392;29;20047;-87
2022/11/29 13:44:13;;;;;;;13.77;7.30;;;9.80;99.90;;;;;;4914904;29;20051;-87
2022/11/29 13:47:12;;;;;;;10.93;7.20;;;9.80;99.90;;;;;;4915257;29;20045;-87
2022/11/29 13:50:01;;;;;;;11.18;7.13;;;9.80;99.90;;;;;;4911448;29;20048;-87